Terminal Aerodrome Forecast
Issued by NWS Memphis, TN

Home | Current Version | Previous Version | Text Only | Print | Product List | Glossary On
Versions: 1 2 3 4 5 6 7 8 9 10 11 12 13 14 15
000
FTUS44 KMEG 231130
TAFMKL
TAF
KMKL 231130Z 2312/2412 18004KT 6SM BR FEW006
      TEMPO 2312/2315 3SM BR SCT005
     FM231500 19008KT P6SM BKN020
     FM231700 18009G15KT P6SM SCT040 SCT250
     FM240000 17008KT P6SM SCT250
     FM240600 18010KT P6SM SCT250 WS020/19040KT=

USA.gov is the U.S. government's official web portal to all federal, state and local government web resources and services.